Time;durP1;ratioP1;P1;durP2;ratioP2;P2;SDS_P1;SDS_P2;PMS_P1;PMS_P2;Temp;Humidity;BMP_temperature;BMP_pressure;BME280_temperature;BME280_humidity;BME280_pressure;Samples;Min_cycle;Max_cycle;Signal;HPM_P1;HPM_P2
2023/10/28 00:00:58;;;;;;;;;;;14.20;80.40;;;;;;5114104;28;19919;-69
2023/10/28 00:03:25;;;;;;;;;;;14.20;80.00;;;;;;5114800;28;19911;-70
2023/10/28 00:05:51;;;;;;;;;;;14.30;80.20;;;;;;5115843;27;20018;-70
2023/10/28 00:08:16;;;;;;;;;;;14.30;80.40;;;;;;5115459;27;20320;-70
2023/10/28 00:10:44;;;;;;;;;;;14.40;80.40;;;;;;5114168;28;19937;-70
2023/10/28 00:13:12;;;;;;;;;;;14.50;80.30;;;;;;5114646;28;19915;-70
2023/10/28 00:15:39;;;;;;;;;;;14.60;79.90;;;;;;5114734;28;19928;-70
2023/10/28 00:18:05;;;;;;;;;;;14.60;79.40;;;;;;5115543;28;19919;-70
2023/10/28 00:20:32;;;;;;;;;;;14.70;78.50;;;;;;5115031;27;20312;-70
2023/10/28 00:22:58;;;;;;;;;;;14.80;78.60;;;;;;5115992;28;19922;-70
2023/10/28 00:25:31;;;;;;;;;;;14.90;78.40;;;;;;5115540;27;19911;-70
2023/10/28 00:27:58;;;;;;;;;;;14.90;78.10;;;;;;5115478;28;19992;-70
2023/10/28 00:30:24;;;;;;;;;;;14.80;77.80;;;;;;5114927;28;19919;-70
2023/10/28 00:32:51;;;;;;;;;;;14.70;77.40;;;;;;5115467;28;19916;-70
2023/10/28 00:35:17;;;;;;;;;;;14.80;77.80;;;;;;5114010;28;19964;-70
2023/10/28 00:37:44;;;;;;;;;;;14.70;78.00;;;;;;5115054;28;19920;-70
2023/10/28 00:40:10;;;;;;;;;;;14.80;78.80;;;;;;5114579;27;19961;-70
2023/10/28 00:42:36;;;;;;;;;;;14.80;77.70;;;;;;5114172;28;19923;-70
2023/10/28 00:45:21;;;;;;;;;;;14.80;76.90;;;;;;5114021;28;19916;-70
2023/10/28 00:47:54;;;;;;;;;;;14.80;77.30;;;;;;5115070;28;19927;-70
2023/10/28 00:50:23;;;;;;;;;;;14.80;77.20;;;;;;5113388;28;19912;-70
2023/10/28 00:52:52;;;;;;;;;;;14.80;76.90;;;;;;5113686;28;19920;-70
2023/10/28 00:55:20;;;;;;;;;;;14.80;76.60;;;;;;5096814;28;20360;-70
2023/10/28 00:57:46;;;;;;;;;;;14.80;76.10;;;;;;5113650;28;19915;-70
2023/10/28 01:00:14;;;;;;;;;;;14.80;76.30;;;;;;5112825;28;20326;-70
2023/10/28 01:05:26;;;;;;;;;;;14.80;75.80;;;;;;5114658;28;19922;-70
2023/10/28 01:07:52;;;;;;;;;;;14.80;75.70;;;;;;5114446;28;19920;-70
2023/10/28 01:10:39;;;;;;;;;;;14.90;75.50;;;;;;5095808;27;20007;-70
2023/10/28 01:13:05;;;;;;;;;;;14.80;75.20;;;;;;5113348;28;20277;-69
2023/10/28 01:15:32;;;;;;;;;;;14.80;75.30;;;;;;5113350;28;19954;-70
2023/10/28 01:17:57;;;;;;;;;;;14.80;75.20;;;;;;5114303;28;19916;-70
2023/10/28 01:20:23;;;;;;;;;;;14.80;75.30;;;;;;5113820;28;20042;-69
2023/10/28 01:22:49;;;;;;;;;;;14.80;75.30;;;;;;5114471;28;20334;-70
2023/10/28 01:25:15;;;;;;;;;;;14.80;75.40;;;;;;5114313;28;20284;-70
2023/10/28 01:27:43;;;;;;;;;;;14.70;75.40;;;;;;5113412;28;19919;-69
2023/10/28 01:30:13;;;;;;;;;;;14.70;75.30;;;;;;5113578;28;19916;-70
2023/10/28 01:32:59;;;;;;;;;;;14.60;74.80;;;;;;5114768;28;19916;-70
2023/10/28 01:35:24;;;;;;;;;;;14.50;74.80;;;;;;5113965;28;19965;-70
2023/10/28 01:37:51;;;;;;;;;;;14.40;74.90;;;;;;5112249;28;19919;-70
2023/10/28 01:40:17;;;;;;;;;;;14.40;75.00;;;;;;5113516;28;19918;-70
2023/10/28 01:42:45;;;;;;;;;;;14.40;75.20;;;;;;5112882;28;20324;-70
2023/10/28 01:45:11;;;;;;;;;;;14.40;75.20;;;;;;5112642;28;20368;-70
2023/10/28 01:47:40;;;;;;;;;;;14.40;75.20;;;;;;5095938;28;20364;-70
2023/10/28 01:50:07;;;;;;;;;;;14.30;75.40;;;;;;5112205;28;20265;-70
2023/10/28 01:52:33;;;;;;;;;;;14.20;75.60;;;;;;5112416;28;19916;-70
2023/10/28 01:54:59;;;;;;;;;;;14.10;75.80;;;;;;5113087;28;19937;-70
2023/10/28 01:57:25;;;;;;;;;;;14.10;76.20;;;;;;5111736;28;19998;-70
2023/10/28 01:59:52;;;;;;;;;;;14.10;76.30;;;;;;5112870;28;20027;-70
2023/10/28 02:02:18;;;;;;;;;;;14.00;77.00;;;;;;5111197;28;19919;-70
2023/10/28 02:04:44;;;;;;;;;;;13.90;75.70;;;;;;5094758;28;20010;-69
2023/10/28 02:07:10;;;;;;;;;;;13.90;76.50;;;;;;5112966;28;19927;-70
2023/10/28 02:09:35;;;;;;;;;;;13.80;76.50;;;;;;5112850;28;20002;-70
2023/10/28 02:12:04;;;;;;;;;;;13.80;76.50;;;;;;5112351;28;20007;-70
2023/10/28 02:14:30;;;;;;;;;;;13.70;76.60;;;;;;5111683;28;19911;-69
2023/10/28 02:16:56;;;;;;;;;;;13.60;75.90;;;;;;5111467;28;20352;-70
2023/10/28 02:19:22;;;;;;;;;;;13.60;76.00;;;;;;5111365;28;19937;-70
2023/10/28 02:21:49;;;;;;;;;;;13.50;76.70;;;;;;5110809;28;19920;-69
2023/10/28 02:24:16;;;;;;;;;;;13.50;76.50;;;;;;5111487;28;20383;-69
2023/10/28 02:26:43;;;;;;;;;;;13.40;76.50;;;;;;5111375;28;20360;-69
2023/10/28 02:29:09;;;;;;;;;;;13.40;76.40;;;;;;5112468;28;19912;-70
2023/10/28 02:31:35;;;;;;;;;;;13.40;76.40;;;;;;5112113;28;20369;-70
2023/10/28 02:34:01;;;;;;;;;;;13.40;76.60;;;;;;5111280;28;19930;-70
2023/10/28 02:36:27;;;;;;;;;;;13.30;76.70;;;;;;5112421;28;19943;-70
2023/10/28 02:38:53;;;;;;;;;;;13.40;76.60;;;;;;5110837;28;19918;-70
2023/10/28 02:41:19;;;;;;;;;;;13.30;77.50;;;;;;5112070;28;20348;-70
2023/10/28 02:43:45;;;;;;;;;;;13.20;76.60;;;;;;5112514;28;20272;-70
2023/10/28 02:46:10;;;;;;;;;;;13.20;76.60;;;;;;5112291;28;20184;-70
2023/10/28 02:48:36;;;;;;;;;;;13.20;76.70;;;;;;5112664;28;19918;-70
2023/10/28 02:51:21;;;;;;;;;;;13.20;76.60;;;;;;5115359;28;20010;-70
2023/10/28 02:53:47;;;;;;;;;;;13.20;76.60;;;;;;5073837;28;1223733;-70
2023/10/28 02:56:13;;;;;;;;;;;13.20;76.80;;;;;;5117303;28;20237;-69
2023/10/28 02:58:39;;;;;;;;;;;13.10;76.80;;;;;;5117230;28;19923;-69
2023/10/28 03:01:07;;;;;;;;;;;13.10;76.90;;;;;;5116518;28;19916;-70
2023/10/28 03:03:33;;;;;;;;;;;13.10;76.80;;;;;;5116108;28;20295;-70
2023/10/28 03:05:58;;;;;;;;;;;13.10;77.00;;;;;;5115684;28;20014;-69
2023/10/28 03:08:24;;;;;;;;;;;13.10;77.10;;;;;;5116809;28;20010;-70
2023/10/28 03:10:50;;;;;;;;;;;13.00;77.10;;;;;;5115156;28;19920;-69
2023/10/28 03:13:16;;;;;;;;;;;13.00;77.30;;;;;;5116967;28;19916;-70
2023/10/28 03:15:45;;;;;;;;;;;13.00;77.30;;;;;;5115582;28;19954;-70
2023/10/28 03:18:11;;;;;;;;;;;12.90;77.00;;;;;;5115600;28;20018;-70
2023/10/28 03:20:37;;;;;;;;;;;12.80;77.10;;;;;;5116162;27;19915;-70
2023/10/28 03:23:03;;;;;;;;;;;12.80;77.20;;;;;;5115659;28;19926;-70
2023/10/28 03:25:31;;;;;;;;;;;12.70;77.20;;;;;;5116696;28;19961;-70
2023/10/28 03:27:57;;;;;;;;;;;12.70;77.30;;;;;;5098679;28;19920;-69
2023/10/28 03:30:22;;;;;;;;;;;12.70;77.10;;;;;;5116301;28;20373;-70
2023/10/28 03:32:49;;;;;;;;;;;12.70;76.70;;;;;;5115359;28;19927;-69
2023/10/28 03:35:16;;;;;;;;;;;12.70;76.40;;;;;;5116872;27;19934;-70
2023/10/28 03:37:43;;;;;;;;;;;12.60;76.10;;;;;;5115040;28;19963;-69
2023/10/28 03:40:10;;;;;;;;;;;12.60;76.30;;;;;;5114650;28;19919;-69
2023/10/28 03:42:36;;;;;;;;;;;12.60;76.00;;;;;;5115429;28;20388;-70
2023/10/28 03:45:07;;;;;;;;;;;12.60;75.40;;;;;;5098028;28;19969;-70
2023/10/28 03:47:33;;;;;;;;;;;12.70;76.00;;;;;;5115428;28;19919;-70
2023/10/28 03:49:59;;;;;;;;;;;12.80;75.80;;;;;;5097906;28;20288;-69
2023/10/28 03:52:26;;;;;;;;;;;12.80;75.80;;;;;;5114398;28;19923;-70
2023/10/28 03:54:52;;;;;;;;;;;12.80;75.60;;;;;;5116202;28;19919;-69
2023/10/28 03:57:18;;;;;;;;;;;12.90;75.70;;;;;;5114983;28;19958;-69
2023/10/28 03:59:46;;;;;;;;;;;12.90;75.20;;;;;;5114407;28;19955;-70
2023/10/28 04:02:13;;;;;;;;;;;12.90;75.70;;;;;;5115785;28;20390;-70
2023/10/28 04:04:38;;;;;;;;;;;12.90;75.90;;;;;;5114850;28;19989;-70
2023/10/28 04:07:04;;;;;;;;;;;12.80;76.10;;;;;;5114405;28;20058;-70
2023/10/28 04:09:31;;;;;;;;;;;12.80;76.10;;;;;;5115966;28;19920;-70
2023/10/28 04:12:00;;;;;;;;;;;12.80;76.00;;;;;;5114039;28;19959;-70
2023/10/28 04:14:26;;;;;;;;;;;12.70;76.20;;;;;;5115814;28;20010;-70
2023/10/28 04:16:52;;;;;;;;;;;12.70;75.50;;;;;;5116010;28;20481;-69
2023/10/28 04:19:18;;;;;;;;;;;12.70;76.30;;;;;;5114239;28;19916;-71
2023/10/28 04:21:43;;;;;;;;;;;12.70;76.40;;;;;;5113725;28;19916;-70
2023/10/28 04:24:10;;;;;;;;;;;12.60;76.60;;;;;;5114431;28;20376;-69
2023/10/28 04:26:36;;;;;;;;;;;12.60;77.70;;;;;;5115638;28;19922;-70
2023/10/28 04:29:03;;;;;;;;;;;12.50;76.90;;;;;;5115465;28;20265;-70
2023/10/28 04:31:29;;;;;;;;;;;12.40;76.60;;;;;;5113652;28;20327;-70
2023/10/28 04:34:00;;;;;;;;;;;12.40;76.50;;;;;;5114123;28;19939;-70
2023/10/28 04:36:26;;;;;;;;;;;12.40;76.70;;;;;;5113985;27;19916;-70
2023/10/28 04:38:52;;;;;;;;;;;12.40;76.70;;;;;;5096868;28;19927;-70
2023/10/28 04:41:18;;;;;;;;;;;12.40;76.70;;;;;;5113451;28;20380;-70
2023/10/28 04:43:44;;;;;;;;;;;12.30;76.80;;;;;;5114051;28;20382;-69
2023/10/28 04:46:10;;;;;;;;;;;12.30;76.80;;;;;;5096666;28;19962;-70
2023/10/28 04:48:38;;;;;;;;;;;12.30;76.90;;;;;;5113870;28;20466;-70
2023/10/28 04:51:05;;;;;;;;;;;12.30;77.80;;;;;;5113173;28;20353;-70
2023/10/28 04:53:31;;;;;;;;;;;12.30;76.80;;;;;;5096760;28;20360;-69
2023/10/28 04:55:57;;;;;;;;;;;12.30;76.40;;;;;;5113743;28;19919;-70
2023/10/28 04:58:24;;;;;;;;;;;12.30;77.10;;;;;;5113809;28;19919;-70
2023/10/28 05:00:50;;;;;;;;;;;12.30;77.10;;;;;;5114233;27;20014;-70
2023/10/28 05:03:16;;;;;;;;;;;12.30;76.50;;;;;;5114982;28;19911;-70
2023/10/28 05:05:42;;;;;;;;;;;12.30;77.30;;;;;;5113398;28;20045;-70
2023/10/28 05:08:08;;;;;;;;;;;12.20;77.20;;;;;;5114392;28;20334;-70
2023/10/28 05:10:34;;;;;;;;;;;12.20;76.60;;;;;;5095902;28;19929;-70
2023/10/28 05:13:00;;;;;;;;;;;12.20;77.30;;;;;;5095551;28;20288;-70
2023/10/28 05:15:26;;;;;;;;;;;12.10;77.50;;;;;;5113093;28;19918;-70
2023/10/28 05:17:52;;;;;;;;;;;12.10;77.60;;;;;;5113236;28;19934;-70
2023/10/28 05:20:17;;;;;;;;;;;12.00;77.30;;;;;;5113865;28;19962;-70
2023/10/28 05:22:43;;;;;;;;;;;12.00;77.20;;;;;;5114512;27;19927;-70
2023/10/28 05:25:09;;;;;;;;;;;12.00;77.30;;;;;;5114340;28;20078;-70
2023/10/28 05:27:35;;;;;;;;;;;12.00;77.20;;;;;;5113416;28;19911;-70
2023/10/28 05:30:03;;;;;;;;;;;12.00;76.40;;;;;;5113064;28;19942;-70
2023/10/28 05:32:32;;;;;;;;;;;12.10;76.80;;;;;;5112794;28;19915;-69
2023/10/28 05:34:58;;;;;;;;;;;12.10;76.20;;;;;;5096429;28;19916;-70
2023/10/28 05:37:26;;;;;;;;;;;12.10;76.40;;;;;;5112851;28;20002;-70
2023/10/28 05:39:52;;;;;;;;;;;12.10;76.40;;;;;;5112864;28;20269;-70
2023/10/28 05:42:18;;;;;;;;;;;12.20;76.50;;;;;;5112433;28;19999;-70
2023/10/28 05:44:43;;;;;;;;;;;12.20;76.50;;;;;;5112888;28;20355;-70
2023/10/28 05:47:11;;;;;;;;;;;12.30;76.60;;;;;;5112779;28;19966;-70
2023/10/28 05:49:38;;;;;;;;;;;12.30;76.50;;;;;;5095635;28;19918;-70
2023/10/28 05:52:04;;;;;;;;;;;12.30;76.70;;;;;;5111956;28;19916;-70
2023/10/28 05:54:31;;;;;;;;;;;12.20;76.60;;;;;;5112721;28;19912;-69
2023/10/28 05:56:57;;;;;;;;;;;12.30;76.80;;;;;;5114081;28;19973;-70
2023/10/28 05:59:23;;;;;;;;;;;12.20;76.60;;;;;;5112528;28;20287;-69
2023/10/28 06:01:49;;;;;;;;;;;12.30;76.70;;;;;;5113434;28;19919;-70
2023/10/28 06:04:15;;;;;;;;;;;12.30;76.50;;;;;;5112501;28;20002;-70
2023/10/28 06:06:41;;;;;;;;;;;12.30;76.30;;;;;;5113961;28;20010;-70
2023/10/28 06:09:09;;;;;;;;;;;12.30;76.30;;;;;;5112188;28;20411;-69
2023/10/28 06:11:36;;;;;;;;;;;12.40;76.20;;;;;;5113461;28;20432;-70
2023/10/28 06:14:03;;;;;;;;;;;12.40;75.80;;;;;;5112391;28;19988;-70
2023/10/28 06:16:29;;;;;;;;;;;12.50;75.80;;;;;;5113550;28;19927;-70
2023/10/28 06:18:55;;;;;;;;;;;12.50;75.70;;;;;;5113294;27;20295;-70
2023/10/28 06:21:21;;;;;;;;;;;12.60;75.40;;;;;;5111679;28;19919;-70
2023/10/28 06:23:47;;;;;;;;;;;12.60;75.40;;;;;;5112087;28;19911;-70
2023/10/28 06:26:13;;;;;;;;;;;12.70;75.50;;;;;;5112106;28;19925;-70
2023/10/28 06:28:39;;;;;;;;;;;12.80;75.50;;;;;;5113316;28;19943;-70
2023/10/28 06:31:05;;;;;;;;;;;12.90;75.60;;;;;;5094343;28;19926;-70
2023/10/28 06:33:32;;;;;;;;;;;13.00;75.30;;;;;;5095126;28;19966;-70
2023/10/28 06:35:58;;;;;;;;;;;13.10;75.30;;;;;;5111920;28;19920;-70
2023/10/28 06:38:27;;;;;;;;;;;13.20;75.30;;;;;;5111779;28;19912;-70
2023/10/28 06:40:53;;;;;;;;;;;13.30;75.40;;;;;;5112804;28;19920;-70
2023/10/28 06:43:19;;;;;;;;;;;13.40;74.60;;;;;;5111999;28;19912;-70
2023/10/28 06:45:45;;;;;;;;;;;13.50;75.10;;;;;;5113295;28;20018;-70
2023/10/28 06:48:11;;;;;;;;;;;13.60;75.10;;;;;;5111797;28;20340;-70
2023/10/28 06:50:37;;;;;;;;;;;13.70;75.20;;;;;;5112613;28;19927;-70
2023/10/28 06:53:03;;;;;;;;;;;13.80;75.10;;;;;;5111897;28;19923;-70
2023/10/28 06:55:29;;;;;;;;;;;13.90;74.90;;;;;;5111881;28;19911;-70
2023/10/28 06:57:55;;;;;;;;;;;14.00;74.80;;;;;;5111807;28;19990;-70
2023/10/28 07:00:26;;;;;;;;;;;14.00;74.70;;;;;;5112415;28;19915;-70
2023/10/28 07:02:53;;;;;;;;;;;14.10;75.10;;;;;;5111917;28;19919;-70
2023/10/28 07:05:19;;;;;;;;;;;14.20;74.40;;;;;;5095010;28;19919;-70
2023/10/28 07:07:45;;;;;;;;;;;14.30;74.90;;;;;;5112693;28;19947;-70
2023/10/28 07:12:57;;;;;;;;;;;14.50;74.60;;;;;;5112268;28;20277;-70
2023/10/28 07:15:23;;;;;;;;;;;14.70;74.40;;;;;;5094588;28;19930;-69
2023/10/28 07:17:48;;;;;;;;;;;14.90;74.20;;;;;;5112846;28;19922;-70
2023/10/28 07:20:18;;;;;;;;;;;14.80;73.90;;;;;;5110953;28;19912;-70
2023/10/28 07:22:44;;;;;;;;;;;14.90;74.00;;;;;;5111733;28;19919;-70
2023/10/28 07:25:10;;;;;;;;;;;14.90;74.10;;;;;;5111556;28;19969;-70
2023/10/28 07:27:36;;;;;;;;;;;14.90;74.30;;;;;;5094753;28;19954;-69
2023/10/28 07:30:02;;;;;;;;;;;14.90;74.40;;;;;;5111467;28;19919;-70
2023/10/28 07:32:28;;;;;;;;;;;14.90;74.60;;;;;;5112935;28;19920;-70
2023/10/28 07:34:54;;;;;;;;;;;14.90;74.40;;;;;;5112424;28;19912;-70
2023/10/28 07:37:20;;;;;;;;;;;14.90;74.40;;;;;;5115055;28;20355;-70
2023/10/28 07:39:45;;;;;;;;;;;15.00;74.30;;;;;;5115203;28;20410;-70
2023/10/28 07:42:11;;;;;;;;;;;15.10;74.30;;;;;;5116326;28;19962;-70
2023/10/28 07:44:37;;;;;;;;;;;15.10;74.10;;;;;;5116437;27;19912;-70
2023/10/28 07:47:03;;;;;;;;;;;15.30;73.80;;;;;;5116545;28;19926;-70
2023/10/28 07:49:29;;;;;;;;;;;15.40;73.30;;;;;;5115043;28;19911;-70
2023/10/28 07:51:55;;;;;;;;;;;15.60;73.70;;;;;;5116003;28;19930;-70
2023/10/28 07:54:21;;;;;;;;;;;15.60;73.70;;;;;;5114759;28;19919;-70
2023/10/28 07:56:47;;;;;;;;;;;15.70;73.70;;;;;;5116486;28;19926;-70
2023/10/28 07:59:13;;;;;;;;;;;15.70;73.20;;;;;;5116082;28;20011;-70
2023/10/28 08:01:39;;;;;;;;;;;15.70;73.70;;;;;;5115704;28;19995;-70
2023/10/28 08:04:05;;;;;;;;;;;15.80;73.40;;;;;;5114971;28;20006;-70
2023/10/28 08:06:31;;;;;;;;;;;15.90;72.90;;;;;;5114644;28;19924;-69
2023/10/28 08:08:57;;;;;;;;;;;16.10;72.80;;;;;;5115690;28;20321;-70
2023/10/28 08:11:27;;;;;;;;;;;16.20;72.50;;;;;;5115447;28;19927;-70
2023/10/28 08:13:55;;;;;;;;;;;16.50;72.20;;;;;;5114699;28;20268;-70
2023/10/28 08:16:23;;;;;;;;;;;16.90;71.00;;;;;;5114567;28;19926;-70
2023/10/28 08:18:49;;;;;;;;;;;17.20;69.10;;;;;;5114361;28;20017;-70
2023/10/28 08:21:16;;;;;;;;;;;17.80;65.90;;;;;;5115260;28;20376;-70
2023/10/28 08:24:01;;;;;;;;;;;17.70;67.10;;;;;;5114607;28;20014;-70
2023/10/28 08:26:27;;;;;;;;;;;19.00;65.70;;;;;;5115818;28;19942;-70
2023/10/28 08:28:53;;;;;;;;;;;21.10;58.70;;;;;;5097304;28;20368;-70
2023/10/28 08:31:20;;;;;;;;;;;20.60;59.00;;;;;;5113688;28;19919;-70
2023/10/28 08:33:47;;;;;;;;;;;21.30;58.10;;;;;;5114420;28;20312;-70
2023/10/28 08:36:13;;;;;;;;;;;21.20;57.70;;;;;;5113917;28;19920;-70
2023/10/28 08:38:39;;;;;;;;;;;21.60;55.90;;;;;;5113982;28;19999;-70
2023/10/28 08:41:05;;;;;;;;;;;21.50;56.10;;;;;;5114699;28;19919;-70
2023/10/28 08:43:34;;;;;;;;;;;21.40;56.00;;;;;;5114161;28;19951;-70
2023/10/28 08:46:01;;;;;;;;;;;21.10;56.40;;;;;;5114274;28;19919;-70
2023/10/28 08:48:27;;;;;;;;;;;21.20;56.40;;;;;;5096627;28;19915;-70
2023/10/28 08:50:56;;;;;;;;;;;21.40;54.70;;;;;;5114676;28;19946;-70
2023/10/28 08:53:22;;;;;;;;;;;21.30;55.70;;;;;;5096781;28;19915;-70
2023/10/28 08:58:33;;;;;;;;;;;20.80;56.50;;;;;;5114386;28;19923;-70
2023/10/28 09:01:01;;;;;;;;;;;20.80;55.60;;;;;;5112894;28;19920;-70
2023/10/28 09:03:28;;;;;;;;;;;20.80;56.20;;;;;;5115264;28;19998;-70
2023/10/28 09:05:54;;;;;;;;;;;20.70;56.20;;;;;;5114737;28;19962;-70
2023/10/28 09:08:20;;;;;;;;;;;20.70;56.30;;;;;;5113050;28;19912;-70
2023/10/28 09:10:46;;;;;;;;;;;20.70;55.40;;;;;;5111404;28;19988;-70
2023/10/28 09:13:13;;;;;;;;;;;20.60;55.40;;;;;;5102927;28;19916;-70
2023/10/28 09:15:39;;;;;;;;;;;20.30;54.90;;;;;;5092938;28;20357;-70
2023/10/28 09:18:06;;;;;;;;;;;20.40;55.30;;;;;;5093782;28;19916;-70
2023/10/28 09:20:32;;;;;;;;;;;20.50;55.70;;;;;;5092181;28;19916;-70
2023/10/28 09:22:57;;;;;;;;;;;20.60;55.60;;;;;;5094165;28;20375;-70
2023/10/28 09:25:23;;;;;;;;;;;20.50;54.80;;;;;;5081158;28;19950;-70
2023/10/28 09:27:50;;;;;;;;;;;20.30;55.70;;;;;;5112820;28;19923;-70
2023/10/28 09:30:17;;;;;;;;;;;20.00;56.50;;;;;;5096630;27;19919;-70
2023/10/28 09:32:43;;;;;;;;;;;19.70;56.90;;;;;;5092775;28;19924;-71
2023/10/28 09:35:13;;;;;;;;;;;19.50;56.60;;;;;;5092351;28;20329;-70
2023/10/28 09:37:40;;;;;;;;;;;19.60;57.40;;;;;;5075879;28;19961;-70
2023/10/28 09:40:08;;;;;;;;;;;19.90;57.00;;;;;;5091938;27;19923;-70
2023/10/28 09:42:36;;;;;;;;;;;20.10;57.60;;;;;;5086625;28;19919;-70
2023/10/28 09:45:06;;;;;;;;;;;20.10;56.50;;;;;;5095693;28;19916;-70
2023/10/28 09:47:43;;;;;;;;;;;20.10;57.20;;;;;;5112848;28;19916;-70
2023/10/28 09:50:12;;;;;;;;;;;20.20;55.90;;;;;;5080576;28;19926;-70
2023/10/28 09:52:42;;;;;;;;;;;20.20;55.90;;;;;;5092408;28;19951;-70
2023/10/28 09:55:12;;;;;;;;;;;20.20;56.10;;;;;;5098127;28;19916;-70
2023/10/28 09:57:39;;;;;;;;;;;20.10;56.60;;;;;;5092667;28;20312;-70
2023/10/28 10:00:11;;;;;;;;;;;20.10;56.70;;;;;;5092270;28;20019;-70
2023/10/28 10:02:57;;;;;;;;;;;20.00;56.50;;;;;;5097957;28;19966;-70
2023/10/28 10:05:30;;;;;;;;;;;20.10;56.40;;;;;;5107423;28;19916;-70
2023/10/28 10:07:56;;;;;;;;;;;20.30;56.10;;;;;;5091831;28;19916;-70
2023/10/28 10:10:22;;;;;;;;;;;20.50;56.30;;;;;;5091448;28;19922;-70
2023/10/28 10:15:33;;;;;;;;;;;20.40;55.60;;;;;;5113481;28;19916;-70
2023/10/28 10:18:10;;;;;;;;;;;20.40;54.90;;;;;;5093901;28;19916;-70
2023/10/28 10:20:36;;;;;;;;;;;20.30;55.00;;;;;;5091191;28;19922;-70
2023/10/28 10:23:03;;;;;;;;;;;20.30;55.60;;;;;;5091371;28;19959;-70
2023/10/28 10:25:49;;;;;;;;;;;20.60;55.20;;;;;;5091856;28;19957;-70
2023/10/28 10:28:23;;;;;;;;;;;21.10;54.50;;;;;;5098940;28;20280;-70
2023/10/28 10:30:49;;;;;;;;;;;21.50;53.80;;;;;;5111551;28;19920;-70
2023/10/28 10:33:34;;;;;;;;;;;21.50;53.10;;;;;;5112153;28;19951;-70
2023/10/28 10:36:00;;;;;;;;;;;21.60;53.20;;;;;;5111810;28;20012;-70
2023/10/28 10:38:45;;;;;;;;;;;21.70;53.30;;;;;;5112621;28;20388;-70
2023/10/28 10:41:11;;;;;;;;;;;21.60;52.50;;;;;;5112439;28;19966;-70
2023/10/28 10:43:38;;;;;;;;;;;21.60;52.70;;;;;;5102478;28;19911;-70
2023/10/28 10:46:03;;;;;;;;;;;21.80;53.20;;;;;;5091359;28;20342;-70
2023/10/28 10:48:33;;;;;;;;;;;22.50;51.40;;;;;;5092667;28;19956;-70
2023/10/28 10:51:00;;;;;;;;;;;22.40;51.30;;;;;;5092252;28;19966;-70
2023/10/28 10:53:25;;;;;;;;;;;22.30;51.10;;;;;;5091165;28;19923;-70
2023/10/28 10:55:51;;;;;;;;;;;22.40;51.20;;;;;;5091089;28;20006;-70
2023/10/28 10:58:18;;;;;;;;;;;22.20;50.00;;;;;;5092696;28;19995;-70
2023/10/28 11:01:03;;;;;;;;;;;22.10;51.40;;;;;;5090804;28;19927;-71
2023/10/28 11:03:29;;;;;;;;;;;22.00;52.30;;;;;;5092966;28;20288;-70
2023/10/28 11:05:56;;;;;;;;;;;21.80;52.80;;;;;;5091327;28;19920;-70
2023/10/28 11:08:22;;;;;;;;;;;21.60;52.80;;;;;;5092354;28;19912;-69
2023/10/28 11:10:48;;;;;;;;;;;21.50;53.30;;;;;;5076489;28;19924;-70
2023/10/28 11:13:13;;;;;;;;;;;21.40;53.50;;;;;;5096854;28;20007;-70
2023/10/28 11:15:39;;;;;;;;;;;21.30;54.40;;;;;;5095329;28;20323;-69
2023/10/28 11:18:07;;;;;;;;;;;21.30;54.10;;;;;;5096346;28;20380;-70
2023/10/28 11:20:32;;;;;;;;;;;21.30;52.80;;;;;;5094371;28;19923;-70
2023/10/28 11:22:58;;;;;;;;;;;21.50;53.70;;;;;;5095093;28;19920;-70
2023/10/28 11:25:46;;;;;;;;;;;21.80;53.00;;;;;;5094918;28;19966;-69
2023/10/28 11:28:12;;;;;;;;;;;22.10;52.00;;;;;;5095069;28;19955;-69
2023/10/28 11:30:38;;;;;;;;;;;22.00;52.70;;;;;;5094464;28;20006;-70
2023/10/28 11:33:07;;;;;;;;;;;21.90;53.80;;;;;;5095057;28;19951;-70
2023/10/28 11:35:34;;;;;;;;;;;21.80;53.40;;;;;;5094691;28;19938;-70
2023/10/28 11:38:03;;;;;;;;;;;22.50;51.70;;;;;;5113484;28;19980;-70
2023/10/28 11:40:29;;;;;;;;;;;22.70;50.70;;;;;;5114530;28;19915;-69
2023/10/28 11:42:55;;;;;;;;;;;22.60;50.10;;;;;;5115114;28;19919;-70
2023/10/28 11:45:21;;;;;;;;;;;22.40;50.50;;;;;;5098042;28;20014;-70
2023/10/28 11:47:47;;;;;;;;;;;22.60;49.40;;;;;;5115182;28;19919;-69
2023/10/28 11:50:13;;;;;;;;;;;22.40;50.50;;;;;;5114425;28;19918;-70
2023/10/28 11:52:39;;;;;;;;;;;22.20;50.40;;;;;;5115062;28;20345;-70
2023/10/28 11:55:05;;;;;;;;;;;22.40;49.50;;;;;;5114910;28;19916;-70
2023/10/28 11:57:32;;;;;;;;;;;22.40;50.30;;;;;;5116465;28;19915;-70
2023/10/28 11:59:58;;;;;;;;;;;22.20;51.20;;;;;;5114730;28;19960;-70
2023/10/28 12:02:25;;;;;;;;;;;22.10;50.90;;;;;;5113729;28;19928;-70
2023/10/28 12:04:51;;;;;;;;;;;22.10;51.10;;;;;;5114546;28;19911;-70
2023/10/28 12:07:17;;;;;;;;;;;22.10;50.10;;;;;;5097222;28;19920;-70
2023/10/28 12:09:43;;;;;;;;;;;22.20;50.90;;;;;;5114675;28;19942;-70
2023/10/28 12:12:09;;;;;;;;;;;22.30;51.60;;;;;;5114036;28;19920;-70
2023/10/28 12:14:35;;;;;;;;;;;22.40;51.20;;;;;;5115941;27;19911;-70
2023/10/28 12:17:01;;;;;;;;;;;22.70;50.10;;;;;;5114640;28;20291;-70
2023/10/28 12:19:28;;;;;;;;;;;22.90;48.70;;;;;;5115652;28;19918;-70
2023/10/28 12:21:53;;;;;;;;;;;22.90;48.90;;;;;;5113643;28;20387;-70
2023/10/28 12:24:19;;;;;;;;;;;22.80;48.80;;;;;;5114349;28;19912;-70
2023/10/28 12:26:45;;;;;;;;;;;22.50;49.70;;;;;;5115786;28;19919;-70
2023/10/28 12:29:11;;;;;;;;;;;22.60;50.10;;;;;;5115496;28;20284;-70
2023/10/28 12:31:37;;;;;;;;;;;24.80;46.40;;;;;;5115246;28;20279;-70
2023/10/28 12:34:03;;;;;;;;;;;28.50;38.40;;;;;;5115465;28;19922;-70
2023/10/28 12:36:30;;;;;;;;;;;30.70;31.80;;;;;;5115366;28;19919;-70
2023/10/28 12:38:56;;;;;;;;;;;29.70;32.90;;;;;;5096889;28;20443;-70
2023/10/28 12:41:22;;;;;;;;;;;28.70;35.30;;;;;;5113336;28;20006;-70
2023/10/28 12:43:49;;;;;;;;;;;27.80;37.10;;;;;;5115347;27;19922;-70
2023/10/28 12:46:15;;;;;;;;;;;28.50;35.50;;;;;;5113817;28;19916;-70
2023/10/28 12:48:41;;;;;;;;;;;30.00;33.10;;;;;;5100815;28;20018;-70
2023/10/28 12:51:08;;;;;;;;;;;29.10;34.50;;;;;;5111276;28;19920;-70
2023/10/28 12:53:34;;;;;;;;;;;28.30;36.90;;;;;;5112360;28;19919;-70
2023/10/28 12:56:01;;;;;;;;;;;28.10;37.70;;;;;;5115089;28;19965;-70
2023/10/28 12:58:27;;;;;;;;;;;27.80;36.80;;;;;;5115131;28;19964;-70
2023/10/28 13:00:56;;;;;;;;;;;27.60;37.50;;;;;;5114213;28;19998;-70
2023/10/28 13:03:22;;;;;;;;;;;27.10;37.30;;;;;;5105337;28;19966;-70
2023/10/28 13:05:48;;;;;;;;;;;26.80;37.10;;;;;;5102243;28;19920;-70
2023/10/28 13:08:14;;;;;;;;;;;28.30;36.80;;;;;;5099890;28;19970;-69
2023/10/28 13:10:40;;;;;;;;;;;29.60;33.30;;;;;;5094449;28;19919;-70
2023/10/28 13:13:06;;;;;;;;;;;29.10;35.10;;;;;;5113287;28;20010;-70
2023/10/28 13:15:32;;;;;;;;;;;30.80;33.10;;;;;;5113335;28;19990;-70
2023/10/28 13:17:58;;;;;;;;;;;33.50;27.80;;;;;;5113097;28;20350;-70
2023/10/28 13:20:24;;;;;;;;;;;35.60;24.70;;;;;;5112583;28;19926;-70
2023/10/28 13:22:50;;;;;;;;;;;36.70;23.00;;;;;;5095022;28;19966;-70
2023/10/28 13:25:16;;;;;;;;;;;37.30;22.60;;;;;;5096039;28;19933;-70
2023/10/28 13:27:42;;;;;;;;;;;37.50;22.00;;;;;;5113447;28;19960;-70
2023/10/28 13:30:09;;;;;;;;;;;37.70;20.80;;;;;;5112409;28;19938;-70
2023/10/28 13:32:35;;;;;;;;;;;38.30;20.80;;;;;;5112679;28;20442;-70
2023/10/28 13:35:02;;;;;;;;;;;38.60;19.70;;;;;;5112810;28;19915;-69
2023/10/28 13:37:28;;;;;;;;;;;38.40;20.50;;;;;;5112832;28;19949;-70
2023/10/28 13:39:54;;;;;;;;;;;38.10;20.20;;;;;;5095525;28;20381;-70
2023/10/28 13:42:20;;;;;;;;;;;38.00;20.80;;;;;;5112590;28;20011;-70
2023/10/28 13:44:45;;;;;;;;;;;38.20;20.50;;;;;;5114211;28;19955;-70
2023/10/28 13:47:11;;;;;;;;;;;38.50;20.10;;;;;;5112762;28;19971;-70
2023/10/28 13:49:42;;;;;;;;;;;38.40;19.90;;;;;;5112678;28;19947;-70
2023/10/28 13:52:07;;;;;;;;;;;38.00;20.60;;;;;;5113483;28;19930;-70
2023/10/28 13:54:33;;;;;;;;;;;37.00;21.30;;;;;;5112916;28;19992;-70
2023/10/28 13:57:00;;;;;;;;;;;35.20;22.80;;;;;;5112651;28;20431;-70
2023/10/28 13:59:26;;;;;;;;;;;33.60;24.40;;;;;;5113722;28;19993;-70
2023/10/28 14:01:52;;;;;;;;;;;32.50;26.30;;;;;;5112075;28;20373;-71
2023/10/28 14:04:18;;;;;;;;;;;31.80;26.30;;;;;;5113912;28;19911;-70
2023/10/28 14:06:47;;;;;;;;;;;31.50;27.00;;;;;;5112288;28;20391;-70
2023/10/28 14:09:14;;;;;;;;;;;31.80;27.00;;;;;;5113445;28;19919;-70
2023/10/28 14:11:40;;;;;;;;;;;31.30;27.20;;;;;;5112054;28;19926;-70
2023/10/28 14:14:08;;;;;;;;;;;30.70;27.70;;;;;;5113642;28;19937;-70
2023/10/28 14:16:34;;;;;;;;;;;30.30;28.80;;;;;;5112465;28;19945;-69
2023/10/28 14:19:02;;;;;;;;;;;30.30;28.60;;;;;;5112118;28;19912;-70
2023/10/28 14:21:29;;;;;;;;;;;30.00;28.80;;;;;;5104060;28;20343;-70
2023/10/28 14:23:55;;;;;;;;;;;29.60;29.30;;;;;;5076127;28;20377;-70
2023/10/28 14:26:20;;;;;;;;;;;28.90;30.20;;;;;;5092033;28;20030;-70